Terminal Aerodrome Forecast
Issued by NWS

Home | Current Version | Previous Version | Text Only | Print | Product List | Glossary On
Versions: 1 2 3 4 5 6 7 8 9 10 11 12 13 14 15 16 17 18 19 20
000
FTUS43 KMPX 310500
TAFRNH
TAF
KRNH 310520Z 3106/0106 34013G21KT P6SM FEW050
     FM311000 35013KT P6SM SCT045
     FM311300 35012G18KT P6SM BKN045
     FM311800 36008KT P6SM FEW040
     FM312300 35005KT P6SM SKC=

USA.gov is the U.S. government's official web portal to all federal, state and local government web resources and services.